createdAt,value
2023-02-13T00:02:12.798Z,98921.13
2023-02-13T00:04:46.770Z,98904.53
2023-02-13T00:07:18.262Z,98912.19
2023-02-13T00:09:49.211Z,98907.88
2023-02-13T00:12:20.469Z,98899.09
2023-02-13T00:14:51.987Z,98897.97
2023-02-13T00:17:23.214Z,98893.16
2023-02-13T00:19:54.622Z,98900.53
2023-02-13T00:22:26.128Z,98888.09
2023-02-13T00:24:56.982Z,98886.00
2023-02-13T00:27:27.902Z,98885.53
2023-02-13T00:29:59.001Z,98863.00
2023-02-13T00:32:30.169Z,98859.97
2023-02-13T00:35:01.349Z,98839.22
2023-02-13T00:37:33.783Z,98836.50
2023-02-13T00:40:04.738Z,98816.38
2023-02-13T00:42:36.260Z,98829.13
2023-02-13T00:45:07.943Z,98828.16
2023-02-13T00:47:38.909Z,98829.94
2023-02-13T00:50:10.743Z,98829.28
2023-02-13T00:52:41.520Z,98824.34
2023-02-13T00:55:12.602Z,98812.69
2023-02-13T00:57:43.731Z,98807.41
2023-02-13T01:00:15.235Z,98785.38
2023-02-13T01:02:46.677Z,98790.97
2023-02-13T01:05:17.873Z,98783.13
2023-02-13T01:07:50.267Z,98772.94
2023-02-13T01:10:21.515Z,98768.94
2023-02-13T01:12:52.878Z,98774.69
2023-02-13T01:15:24.951Z,98742.28
2023-02-13T01:17:58.847Z,98742.44
2023-02-13T01:20:31.114Z,98732.50
2023-02-13T01:23:03.554Z,98732.34
2023-02-13T01:25:34.595Z,98728.34
2023-02-13T01:28:05.966Z,98717.94
2023-02-13T01:30:37.271Z,98719.72
2023-02-13T01:33:09.126Z,98725.59
2023-02-13T01:35:43.748Z,98717.31
2023-02-13T01:38:15.096Z,98698.91
2023-02-13T01:40:54.569Z,98695.44
2023-02-13T01:43:27.280Z,98715.53
2023-02-13T01:46:04.909Z,98694.16
2023-02-13T01:48:36.060Z,98690.28
2023-02-13T01:51:11.059Z,98684.91
2023-02-13T01:53:49.596Z,98691.94
2023-02-13T01:56:44.625Z,98664.66
2023-02-13T01:59:26.889Z,98670.69
2023-02-13T02:01:58.704Z,98649.94
2023-02-13T02:04:35.204Z,98638.88
2023-02-13T02:07:21.563Z,98628.81
2023-02-13T02:09:55.594Z,98617.63
2023-02-13T02:12:32.535Z,98616.63
2023-02-13T02:15:06.663Z,98610.56
2023-02-13T02:17:37.900Z,98596.56
2023-02-13T02:20:42.565Z,98595.13
2023-02-13T02:23:47.215Z,98594.59
2023-02-13T02:26:56.206Z,98586.72
2023-02-13T02:30:00.960Z,98584.41
2023-02-13T02:32:39.855Z,98572.22
2023-02-13T02:35:34.298Z,98557.50
2023-02-13T02:38:40.476Z,98563.53
2023-02-13T02:41:37.691Z,98549.38
2023-02-13T02:44:34.327Z,98540.69
2023-02-13T02:47:46.919Z,98541.81
2023-02-13T02:50:38.121Z,98530.28
2023-02-13T02:53:33.719Z,98521.53
2023-02-13T02:56:10.388Z,98513.94
2023-02-13T02:58:59.481Z,98503.00
2023-02-13T03:01:50.800Z,98470.34
2023-02-13T03:05:01.908Z,98487.44
2023-02-13T03:07:34.784Z,98486.84
2023-02-13T03:10:48.132Z,98479.78
2023-02-13T03:13:37.629Z,98475.13
2023-02-13T03:16:27.009Z,98468.28
2023-02-13T03:19:17.663Z,98472.88
2023-02-13T03:22:21.998Z,98462.34
2023-02-13T03:25:00.043Z,98457.69
2023-02-13T03:28:00.354Z,98469.53
2023-02-13T03:30:49.652Z,98459.50
2023-02-13T03:33:44.626Z,98451.81
2023-02-13T03:36:49.450Z,98455.59
2023-02-13T03:39:43.205Z,98441.88
2023-02-13T03:42:32.760Z,98417.94
2023-02-13T03:45:48.593Z,98426.03
2023-02-13T03:48:59.953Z,98416.94
2023-02-13T03:51:52.671Z,98403.63
2023-02-13T03:54:58.195Z,98396.50
2023-02-13T03:57:49.222Z,98391.28
2023-02-13T04:00:21.752Z,98386.53
2023-02-13T04:03:05.402Z,98385.19
2023-02-13T04:05:42.037Z,98372.19
2023-02-13T04:08:13.791Z,98363.91
2023-02-13T04:11:04.670Z,98355.53
2023-02-13T04:13:38.812Z,98322.38
2023-02-13T04:16:14.046Z,98317.94
2023-02-13T04:18:46.001Z,98320.44
2023-02-13T04:21:16.374Z,98317.72
2023-02-13T04:23:47.595Z,98303.00
2023-02-13T04:26:24.188Z,98315.13
2023-02-13T04:28:55.595Z,98296.09
2023-02-13T04:31:26.644Z,98292.38
2023-02-13T04:33:57.662Z,98270.06
2023-02-13T04:36:29.597Z,98253.44
2023-02-13T04:39:00.835Z,98258.16
2023-02-13T04:41:31.944Z,98253.09
2023-02-13T04:44:03.040Z,98238.25
2023-02-13T04:46:34.198Z,98223.97
2023-02-13T04:49:05.645Z,98220.50
2023-02-13T04:51:36.508Z,98220.94
2023-02-13T04:54:07.934Z,98220.38
2023-02-13T04:56:39.085Z,98210.84
2023-02-13T04:59:10.024Z,98199.06
2023-02-13T05:01:41.310Z,98203.47
2023-02-13T05:04:17.653Z,98161.97
2023-02-13T05:06:49.015Z,98167.72
2023-02-13T05:09:20.274Z,98176.53
2023-02-13T05:11:54.691Z,98157.16
2023-02-13T05:14:25.856Z,98157.63
2023-02-13T05:16:57.052Z,98140.66
2023-02-13T05:19:28.218Z,98144.63
2023-02-13T05:22:17.431Z,98135.88
2023-02-13T05:24:48.634Z,98134.22
2023-02-13T05:27:19.854Z,98120.63
2023-02-13T05:29:51.095Z,98116.44
2023-02-13T05:32:22.088Z,98114.84
2023-02-13T05:34:53.164Z,98120.38
2023-02-13T05:37:25.250Z,98099.47
2023-02-13T05:39:56.710Z,98123.47
2023-02-13T05:42:27.767Z,98112.94
2023-02-13T05:44:58.998Z,98109.31
2023-02-13T05:47:30.080Z,98111.34
2023-02-13T05:50:01.213Z,98117.47
2023-02-13T05:52:33.586Z,98103.19
2023-02-13T05:55:04.810Z,98117.34
2023-02-13T05:57:35.988Z,98116.44
2023-02-13T06:00:08.617Z,98107.16
2023-02-13T06:02:39.783Z,98119.69
2023-02-13T06:05:10.924Z,98104.66
2023-02-13T06:07:42.239Z,98119.47
2023-02-13T06:10:13.732Z,98110.78
2023-02-13T06:12:45.616Z,98107.16
2023-02-13T06:15:15.842Z,98110.47
2023-02-13T06:17:46.989Z,98096.78
2023-02-13T06:20:18.197Z,98075.59
2023-02-13T06:22:53.354Z,98072.53
2023-02-13T06:25:24.639Z,98052.63
2023-02-13T06:27:56.259Z,98052.28
2023-02-13T06:30:27.260Z,98058.06
2023-02-13T06:32:58.395Z,98053.41
2023-02-13T06:35:29.881Z,98045.94
2023-02-13T06:38:01.773Z,98042.47
2023-02-13T06:40:32.849Z,98037.47
2023-02-13T06:43:03.955Z,98020.47
2023-02-13T06:45:35.424Z,98023.66
2023-02-13T06:48:06.654Z,98028.63
2023-02-13T06:50:38.077Z,97992.34
2023-02-13T06:53:09.679Z,98008.63
2023-02-13T06:55:41.466Z,98008.38
2023-02-13T06:58:12.555Z,98007.94
2023-02-13T07:00:43.569Z,97995.25
2023-02-13T07:03:15.050Z,98001.56
2023-02-13T07:05:46.786Z,97996.50
2023-02-13T07:08:17.336Z,98002.81
2023-02-13T07:10:48.488Z,97993.22
2023-02-13T07:13:19.955Z,97980.53
2023-02-13T07:15:51.038Z,97978.34
2023-02-13T07:18:22.416Z,97967.94
2023-02-13T07:20:53.648Z,97976.13
2023-02-13T07:23:24.683Z,97976.53
2023-02-13T07:25:55.956Z,97977.22
2023-02-13T07:28:27.107Z,97969.72
2023-02-13T07:30:58.939Z,97953.53
2023-02-13T07:33:30.675Z,97952.78
2023-02-13T07:36:04.276Z,97941.47
2023-02-13T07:38:36.257Z,97938.66
2023-02-13T07:41:07.404Z,97928.25
2023-02-13T07:43:38.748Z,97921.13
2023-02-13T07:46:09.878Z,97921.03
2023-02-13T07:48:41.023Z,97924.03
2023-02-13T07:51:12.055Z,97917.88
2023-02-13T07:53:43.451Z,97912.00
2023-02-13T07:56:14.605Z,97897.44
2023-02-13T07:58:46.266Z,97910.53
2023-02-13T08:01:18.595Z,97893.50
2023-02-13T08:03:53.620Z,97882.44
2023-02-13T08:06:25.130Z,97882.19
2023-02-13T08:09:15.958Z,97899.56
2023-02-13T08:11:56.493Z,97870.88
2023-02-13T08:14:29.142Z,97883.94
2023-02-13T08:17:01.972Z,97888.56
2023-02-13T08:19:33.208Z,97873.25
2023-02-13T08:22:04.541Z,97875.88
2023-02-13T08:24:36.015Z,97862.28
2023-02-13T08:27:07.558Z,97847.03
2023-02-13T08:29:39.440Z,97847.63
2023-02-13T08:32:10.138Z,97837.47
2023-02-13T08:34:41.222Z,97845.16
2023-02-13T08:37:12.184Z,97823.72
2023-02-13T08:39:43.965Z,97830.63
2023-02-13T08:42:16.196Z,97829.66
2023-02-13T08:44:47.872Z,97830.19
2023-02-13T08:47:19.155Z,97829.84
2023-02-13T08:49:50.384Z,97822.56
2023-02-13T08:52:21.796Z,97821.09
2023-02-13T08:54:52.794Z,97825.97
2023-02-13T08:57:23.842Z,97826.69
2023-02-13T08:59:54.975Z,97816.88
2023-02-13T09:02:26.176Z,97802.06
2023-02-13T09:04:57.560Z,97829.22
2023-02-13T09:07:28.832Z,97828.00
2023-02-13T09:09:59.742Z,97816.34
2023-02-13T09:12:30.936Z,97789.50
2023-02-13T09:15:02.238Z,97801.84
2023-02-13T09:17:34.684Z,97791.69
2023-02-13T09:20:06.360Z,97801.69
2023-02-13T09:22:38.002Z,97776.38
2023-02-13T09:25:10.161Z,97757.28
2023-02-13T09:27:42.797Z,97778.81
2023-02-13T09:30:19.674Z,97777.50
2023-02-13T09:32:52.033Z,97773.28
2023-02-13T09:35:24.964Z,97786.00
2023-02-13T09:37:55.864Z,97761.91
2023-02-13T09:40:40.029Z,97742.84
2023-02-13T09:43:16.354Z,97746.63
2023-02-13T09:45:49.227Z,97737.34
2023-02-13T09:48:32.600Z,97726.41
2023-02-13T09:51:05.007Z,97718.41
2023-02-13T09:53:37.801Z,97738.75
2023-02-13T09:56:14.513Z,97708.78
2023-02-13T09:59:10.211Z,97711.03
2023-02-13T10:01:46.306Z,97713.75
2023-02-13T10:04:50.120Z,97727.16
2023-02-13T10:07:47.390Z,97698.78
2023-02-13T10:10:29.717Z,97707.97
2023-02-13T10:13:03.901Z,97711.50
2023-02-13T10:15:47.098Z,97711.50
2023-02-13T10:18:27.572Z,97718.59
2023-02-13T10:21:03.807Z,97712.00
2023-02-13T10:24:23.675Z,97676.72
2023-02-13T10:26:55.276Z,97689.31
2023-02-13T10:29:57.043Z,97695.81
2023-02-13T10:32:51.799Z,97676.03
2023-02-13T10:35:35.027Z,97677.06
2023-02-13T10:38:21.819Z,97660.09
2023-02-13T10:41:24.929Z,97666.28
2023-02-13T10:44:17.288Z,97646.88
2023-02-13T10:47:03.927Z,97653.09
2023-02-13T10:49:57.585Z,97602.22
2023-02-13T10:52:55.886Z,97605.09
2023-02-13T10:56:00.381Z,97580.50
2023-02-13T10:58:36.790Z,97592.25
2023-02-13T11:01:16.051Z,97583.22
2023-02-13T11:03:49.393Z,97586.44
2023-02-13T11:06:21.742Z,97578.41
2023-02-13T11:08:53.135Z,97589.28
2023-02-13T11:11:37.724Z,97558.28
2023-02-13T11:14:24.021Z,97550.56
2023-02-13T11:17:15.569Z,97553.78
2023-02-13T11:19:57.973Z,97542.59
2023-02-13T11:22:44.011Z,97544.59
2023-02-13T11:25:32.781Z,97533.81
2023-02-13T11:28:22.612Z,97526.19
2023-02-13T11:30:53.811Z,97511.47
2023-02-13T11:33:30.430Z,97502.69
2023-02-13T11:36:13.157Z,97526.22
2023-02-13T11:38:44.695Z,97503.47
2023-02-13T11:41:16.289Z,97494.94
2023-02-13T11:44:02.575Z,97502.34
2023-02-13T11:46:49.747Z,97500.56
2023-02-13T11:49:46.703Z,97504.19
2023-02-13T11:52:32.785Z,97478.50
2023-02-13T11:55:07.545Z,97511.16
2023-02-13T11:57:39.623Z,97513.88
2023-02-13T12:00:39.096Z,97510.50
2023-02-13T12:03:32.758Z,97509.97
2023-02-13T12:06:06.873Z,97506.69
2023-02-13T12:08:39.554Z,97513.59
2023-02-13T12:11:39.013Z,97503.88
2023-02-13T12:14:14.385Z,97487.06
2023-02-13T12:17:10.822Z,97494.06
2023-02-13T12:19:51.056Z,97481.72
2023-02-13T12:22:40.011Z,97469.94
2023-02-13T12:25:58.883Z,97468.72
2023-02-13T12:28:41.816Z,97450.31
2023-02-13T12:31:46.387Z,97458.44
2023-02-13T12:34:49.531Z,97447.44
2023-02-13T12:37:29.833Z,97440.09
2023-02-13T12:40:26.214Z,97447.94
2023-02-13T12:43:16.137Z,97416.03
2023-02-13T12:46:00.499Z,97409.38
2023-02-13T12:48:37.173Z,97402.31
2023-02-13T12:51:20.062Z,97414.81
2023-02-13T12:53:59.067Z,97401.50
2023-02-13T12:56:33.364Z,97405.84
2023-02-13T12:59:20.866Z,97379.25
2023-02-13T13:02:10.695Z,97387.88
2023-02-13T13:05:21.577Z,97381.38
2023-02-13T13:08:17.704Z,97372.94
2023-02-13T13:10:54.884Z,97366.53
2023-02-13T13:13:48.442Z,97362.81
2023-02-13T13:16:22.722Z,97355.81
2023-02-13T13:19:00.836Z,97356.97
2023-02-13T13:21:41.732Z,97360.78
2023-02-13T13:24:50.249Z,97340.22
2023-02-13T13:27:38.584Z,97361.31
2023-02-13T13:30:20.725Z,97346.09
2023-02-13T13:33:14.809Z,97347.03
2023-02-13T13:36:08.154Z,97336.88
2023-02-13T13:38:58.124Z,97329.75
2023-02-13T13:41:44.229Z,97326.19
2023-02-13T13:44:23.667Z,97344.84
2023-02-13T13:47:19.439Z,97335.59
2023-02-13T13:50:03.593Z,97350.28
2023-02-13T13:52:38.857Z,97355.66
2023-02-13T13:55:47.661Z,97338.94
2023-02-13T13:58:38.638Z,97351.44
2023-02-13T14:01:32.421Z,97344.78
2023-02-13T14:04:24.565Z,97348.72
2023-02-13T14:07:01.714Z,97344.19
2023-02-13T14:09:45.080Z,97354.31
2023-02-13T14:12:31.624Z,97352.13
2023-02-13T14:15:03.206Z,97340.50
2023-02-13T14:17:45.891Z,97335.81
2023-02-13T14:20:51.146Z,97358.25
2023-02-13T14:23:28.332Z,97359.06
2023-02-13T14:26:17.626Z,97338.88
2023-02-13T14:28:52.096Z,97348.41
2023-02-13T14:31:28.949Z,97351.44
2023-02-13T14:34:08.191Z,97344.84
2023-02-13T14:36:42.656Z,97344.13
2023-02-13T14:39:32.288Z,97363.50
2023-02-13T14:42:08.378Z,97352.44
2023-02-13T14:44:49.761Z,97363.81
2023-02-13T14:47:27.532Z,97362.94
2023-02-13T14:50:00.144Z,97368.50
2023-02-13T14:52:36.824Z,97353.00
2023-02-13T14:55:09.703Z,97371.72
2023-02-13T14:57:47.699Z,97374.19
2023-02-13T15:00:27.527Z,97368.50
2023-02-13T15:03:07.307Z,97363.31
2023-02-13T15:05:38.601Z,97361.50
2023-02-13T15:08:24.870Z,97347.09
2023-02-13T15:10:58.642Z,97370.38
2023-02-13T15:13:42.459Z,97380.16
2023-02-13T15:16:15.493Z,97357.38
2023-02-13T15:18:57.466Z,97373.69
2023-02-13T15:21:34.733Z,97377.66
2023-02-13T15:24:06.401Z,97376.59
2023-02-13T15:26:37.876Z,97380.09
2023-02-13T15:29:29.411Z,97378.19
2023-02-13T15:32:20.926Z,97384.44
2023-02-13T15:34:52.173Z,97393.38
2023-02-13T15:37:30.089Z,97383.69
2023-02-13T15:40:17.356Z,97384.31
2023-02-13T15:42:48.810Z,97385.88
2023-02-13T15:45:20.072Z,97383.28
2023-02-13T15:47:51.421Z,97384.38
2023-02-13T15:50:24.897Z,97392.53
2023-02-13T15:52:56.511Z,97386.75
2023-02-13T15:55:30.932Z,97391.44
2023-02-13T15:58:03.423Z,97393.75
2023-02-13T16:00:37.989Z,97394.75
2023-02-13T16:03:16.031Z,97397.91
2023-02-13T16:05:48.626Z,97395.13
2023-02-13T16:08:36.790Z,97389.19
2023-02-13T16:11:39.160Z,97394.69
2023-02-13T16:14:20.442Z,97390.47
2023-02-13T16:16:55.344Z,97393.31
2023-02-13T16:19:30.981Z,97392.47
2023-02-13T16:22:24.361Z,97395.34
2023-02-13T16:24:58.166Z,97396.19
2023-02-13T16:27:30.525Z,97402.03
2023-02-13T16:30:05.326Z,97383.50
2023-02-13T16:32:42.845Z,97405.59
2023-02-13T16:35:30.696Z,97403.16
2023-02-13T16:38:03.858Z,97415.59
2023-02-13T16:40:42.249Z,97407.00
2023-02-13T16:43:38.274Z,97414.44
2023-02-13T16:46:22.057Z,97409.44
2023-02-13T16:48:59.827Z,97422.75
2023-02-13T16:51:52.579Z,97420.91
2023-02-13T16:54:25.396Z,97424.03
2023-02-13T16:57:01.749Z,97437.31
2023-02-13T16:59:50.998Z,97441.59
2023-02-13T17:02:24.961Z,97442.03
2023-02-13T17:04:57.629Z,97439.03
2023-02-13T17:07:36.081Z,97446.69
2023-02-13T17:10:12.622Z,97452.91
2023-02-13T17:12:43.606Z,97454.59
2023-02-13T17:15:17.040Z,97448.25
2023-02-13T17:17:48.754Z,97463.38
2023-02-13T17:20:33.717Z,97465.59
2023-02-13T17:23:07.905Z,97465.53
2023-02-13T17:25:39.924Z,97479.13
2023-02-13T17:28:18.445Z,97481.03
2023-02-13T17:30:50.967Z,97480.13
2023-02-13T17:33:25.054Z,97485.75
2023-02-13T17:35:56.496Z,97488.41
2023-02-13T17:38:27.711Z,97489.31
2023-02-13T17:40:59.092Z,97494.47
2023-02-13T17:43:31.601Z,97499.13
2023-02-13T17:46:02.492Z,97511.44
2023-02-13T17:48:33.732Z,97514.13
2023-02-13T17:51:06.232Z,97523.47
2023-02-13T17:53:38.141Z,97515.25
2023-02-13T17:56:08.524Z,97534.72
2023-02-13T17:58:39.440Z,97538.13
2023-02-13T18:01:12.864Z,97530.72
2023-02-13T18:03:43.998Z,97547.50
2023-02-13T18:06:17.353Z,97550.63
2023-02-13T18:08:48.681Z,97533.88
2023-02-13T18:11:19.446Z,97542.41
2023-02-13T18:13:50.641Z,97551.59
2023-02-13T18:16:24.133Z,97546.69
2023-02-13T18:18:55.048Z,97553.53
2023-02-13T18:21:26.053Z,97557.69
2023-02-13T18:23:57.200Z,97559.25
2023-02-13T18:26:28.437Z,97555.91
2023-02-13T18:28:59.751Z,97548.81
2023-02-13T18:31:31.556Z,97573.06
2023-02-13T18:34:02.110Z,97566.47
2023-02-13T18:36:33.419Z,97559.19
2023-02-13T18:39:05.133Z,97566.03
2023-02-13T18:41:36.403Z,97573.41
2023-02-13T18:44:09.021Z,97577.78
2023-02-13T18:46:41.661Z,97583.75
2023-02-13T18:49:14.134Z,97584.66
2023-02-13T18:51:45.973Z,97586.66
2023-02-13T18:54:17.926Z,97587.88
2023-02-13T18:56:49.411Z,97584.13
2023-02-13T18:59:20.506Z,97583.47
2023-02-13T19:01:52.640Z,97589.69
2023-02-13T19:04:24.038Z,97592.06
2023-02-13T19:06:55.296Z,97604.06
2023-02-13T19:09:26.661Z,97610.88
2023-02-13T19:11:57.697Z,97614.13
2023-02-13T19:14:28.757Z,97607.63
2023-02-13T19:17:00.011Z,97604.97
2023-02-13T19:19:31.682Z,97617.63
2023-02-13T19:22:02.691Z,97611.72
2023-02-13T19:24:33.936Z,97615.84
2023-02-13T19:27:05.019Z,97607.41
2023-02-13T19:29:36.385Z,97608.72
2023-02-13T19:32:07.322Z,97611.81
2023-02-13T19:34:38.600Z,97593.22
2023-02-13T19:37:09.913Z,97611.28
2023-02-13T19:39:41.115Z,97617.16
2023-02-13T19:42:14.293Z,97618.41
2023-02-13T19:44:45.688Z,97608.66
2023-02-13T19:47:16.566Z,97621.34
2023-02-13T19:49:50.236Z,97622.13
2023-02-13T19:52:24.398Z,97626.06
2023-02-13T19:54:55.972Z,97631.63
2023-02-13T19:57:26.890Z,97618.47
2023-02-13T19:59:58.499Z,97618.63
2023-02-13T20:02:29.608Z,97632.06
2023-02-13T20:05:00.697Z,97623.72
2023-02-13T20:07:33.170Z,97636.06
2023-02-13T20:10:04.367Z,97641.47
2023-02-13T20:12:35.392Z,97641.97
2023-02-13T20:15:06.944Z,97652.34
2023-02-13T20:17:38.273Z,97645.41
2023-02-13T20:20:09.956Z,97665.69
2023-02-13T20:22:40.900Z,97656.56
2023-02-13T20:25:11.979Z,97674.81
2023-02-13T20:27:43.641Z,97665.88
2023-02-13T20:30:17.988Z,97658.78
2023-02-13T20:32:49.008Z,97674.03
2023-02-13T20:35:19.978Z,97677.25
2023-02-13T20:37:51.133Z,97682.75
2023-02-13T20:40:22.394Z,97682.41
2023-02-13T20:42:53.796Z,97676.75
2023-02-13T20:45:24.505Z,97697.13
2023-02-13T20:47:55.440Z,97687.06
2023-02-13T20:50:27.459Z,97689.13
2023-02-13T20:52:58.774Z,97694.63
2023-02-13T20:55:29.948Z,97674.56
2023-02-13T20:58:00.938Z,97703.25
2023-02-13T21:00:32.015Z,97696.22
2023-02-13T21:03:03.044Z,97695.31
2023-02-13T21:05:34.272Z,97698.69
2023-02-13T21:08:05.263Z,97702.63
2023-02-13T21:10:38.897Z,97702.09
2023-02-13T21:13:11.980Z,97709.09
2023-02-13T21:15:43.041Z,97712.66
2023-02-13T21:18:14.006Z,97722.84
2023-02-13T21:20:45.012Z,97725.31
2023-02-13T21:23:16.173Z,97719.22
2023-02-13T21:25:47.591Z,97720.03
2023-02-13T21:28:18.938Z,97715.50
2023-02-13T21:30:50.670Z,97712.75
2023-02-13T21:33:22.192Z,97716.66
2023-02-13T21:35:53.037Z,97724.84
2023-02-13T21:38:24.334Z,97724.03
2023-02-13T21:40:55.956Z,97715.81
2023-02-13T21:43:27.234Z,97720.53
2023-02-13T21:46:07.098Z,97724.84
2023-02-13T21:48:38.684Z,97712.69
2023-02-13T21:51:21.526Z,97728.75
2023-02-13T21:53:53.591Z,97741.28
2023-02-13T21:56:39.826Z,97730.72
2023-02-13T21:59:11.312Z,97735.00
2023-02-13T22:01:51.622Z,97733.16
2023-02-13T22:04:23.006Z,97722.56
2023-02-13T22:06:54.905Z,97733.19
2023-02-13T22:09:28.351Z,97744.53
2023-02-13T22:11:59.492Z,97743.25
2023-02-13T22:14:31.055Z,97750.53
2023-02-13T22:17:02.034Z,97742.59
2023-02-13T22:19:33.170Z,97734.53
2023-02-13T22:22:04.002Z,97747.56
2023-02-13T22:24:35.222Z,97743.00
2023-02-13T22:27:06.538Z,97761.81
2023-02-13T22:29:42.050Z,97752.78
2023-02-13T22:32:13.506Z,97755.53
2023-02-13T22:34:44.580Z,97765.75
2023-02-13T22:37:19.907Z,97741.00
2023-02-13T22:39:51.210Z,97738.72
2023-02-13T22:42:22.531Z,97745.50
2023-02-13T22:44:53.020Z,97753.28
2023-02-13T22:47:24.356Z,97750.38
2023-02-13T22:49:55.239Z,97748.81
2023-02-13T22:52:27.013Z,97743.50
2023-02-13T22:54:57.958Z,97749.94
2023-02-13T22:57:29.138Z,97750.78
2023-02-13T23:00:00.092Z,97753.25
2023-02-13T23:02:33.192Z,97741.72
2023-02-13T23:05:04.596Z,97766.31
2023-02-13T23:07:35.753Z,97764.81
2023-02-13T23:10:07.487Z,97756.81
2023-02-13T23:12:38.753Z,97776.31
2023-02-13T23:15:15.526Z,97768.84
2023-02-13T23:18:04.745Z,97775.59
2023-02-13T23:20:36.084Z,97772.63
2023-02-13T23:23:07.545Z,97777.06
2023-02-13T23:25:39.921Z,97775.31
2023-02-13T23:28:11.354Z,97788.06
2023-02-13T23:30:42.879Z,97790.56
2023-02-13T23:33:13.955Z,97784.00
2023-02-13T23:35:45.307Z,97800.53
2023-02-13T23:38:16.727Z,97817.31
2023-02-13T23:40:47.473Z,97815.47
2023-02-13T23:43:18.671Z,97818.53
2023-02-13T23:45:53.116Z,97819.56
2023-02-13T23:48:24.143Z,97817.31
2023-02-13T23:50:55.305Z,97806.00
2023-02-13T23:53:27.141Z,97802.25
2023-02-13T23:55:58.218Z,97808.81
2023-02-13T23:58:29.368Z,97818.63
